Time;durP1;ratioP1;P1;durP2;ratioP2;P2;SDS_P1;SDS_P2;PMS_P1;PMS_P2;Temp;Humidity;BMP_temperature;BMP_pressure;BME280_temperature;BME280_humidity;BME280_pressure;Samples;Min_cycle;Max_cycle;Signal;HPM_P1;HPM_P2
2021/07/06 00:02:49;;;;;;;2.45;0.70;;;21.10;87.90;;;;;;5019166;28;20048;-69
2021/07/06 00:05:54;;;;;;;1.60;0.90;;;21.10;88.00;;;;;;5031981;28;20033;-69
2021/07/06 00:08:58;;;;;;;3.13;1.00;;;21.00;88.50;;;;;;5031825;28;20045;-70
2021/07/06 00:12:03;;;;;;;4.78;1.13;;;21.00;89.30;;;;;;5030992;28;20038;-69
2021/07/06 00:15:10;;;;;;;3.08;1.38;;;20.90;89.60;;;;;;5031936;28;20045;-69
2021/07/06 00:18:15;;;;;;;2.30;0.93;;;20.90;89.70;;;;;;5031366;28;20518;-69
2021/07/06 00:21:19;;;;;;;2.50;1.30;;;20.90;89.90;;;;;;5031004;28;20044;-69
2021/07/06 00:24:23;;;;;;;2.40;1.20;;;20.80;90.30;;;;;;5031476;28;20503;-69
2021/07/06 00:27:27;;;;;;;5.70;1.20;;;20.80;90.70;;;;;;5031451;28;20269;-69
2021/07/06 00:30:31;;;;;;;3.38;1.17;;;20.80;91.00;;;;;;5030880;28;20033;-69
2021/07/06 00:33:36;;;;;;;4.47;1.30;;;20.70;91.00;;;;;;5030650;28;20033;-70
2021/07/06 00:36:45;;;;;;;4.55;1.10;;;20.70;91.00;;;;;;5030146;28;20041;-69
2021/07/06 00:39:50;;;;;;;2.75;1.10;;;20.70;90.40;;;;;;5031043;28;20048;-69
2021/07/06 00:42:59;;;;;;;1.50;1.00;;;20.60;90.50;;;;;;5030744;28;20048;-69
2021/07/06 00:46:05;;;;;;;3.30;0.90;;;20.60;90.50;;;;;;5031124;28;20049;-69
2021/07/06 00:49:09;;;;;;;3.63;1.10;;;20.50;90.80;;;;;;5023345;28;20033;-70
2021/07/06 00:52:13;;;;;;;2.70;0.88;;;20.50;91.00;;;;;;5019852;28;20050;-69
2021/07/06 00:55:17;;;;;;;2.67;1.05;;;20.50;91.00;;;;;;5030814;28;20041;-69
2021/07/06 00:58:23;;;;;;;3.30;0.90;;;20.50;91.00;;;;;;5011116;28;20038;-69
2021/07/06 01:01:27;;;;;;;1.92;0.82;;;20.50;91.00;;;;;;5010449;28;20042;-70
2021/07/06 01:04:44;;;;;;;1.92;1.10;;;20.40;90.90;;;;;;5017525;28;20033;-69
2021/07/06 01:07:51;;;;;;;2.88;1.00;;;20.40;91.20;;;;;;5030705;28;20042;-69
2021/07/06 01:10:57;;;;;;;2.22;1.00;;;20.30;91.50;;;;;;5030303;28;20044;-69
2021/07/06 01:14:01;;;;;;;2.53;1.50;;;20.00;92.00;;;;;;5030435;28;20037;-69
2021/07/06 01:17:06;;;;;;;3.17;1.30;;;20.00;93.00;;;;;;5030795;28;20041;-69
2021/07/06 01:20:16;;;;;;;6.45;1.38;;;19.80;92.90;;;;;;5040334;28;20045;-70
2021/07/06 01:23:26;;;;;;;3.78;1.15;;;19.80;93.20;;;;;;5030275;28;20510;-70
2021/07/06 01:26:29;;;;;;;3.88;1.50;;;19.70;93.90;;;;;;5030620;28;20049;-69
2021/07/06 01:29:34;;;;;;;11.82;1.80;;;19.60;94.20;;;;;;5030788;28;20057;-69
2021/07/06 01:32:43;;;;;;;3.88;1.50;;;19.60;94.50;;;;;;5028371;28;20048;-69
2021/07/06 01:35:51;;;;;;;3.28;1.48;;;19.40;94.50;;;;;;5023103;28;20567;-68
2021/07/06 01:38:56;;;;;;;5.35;1.10;;;19.40;94.30;;;;;;5020352;28;20057;-69
2021/07/06 01:41:59;;;;;;;4.07;1.20;;;19.30;94.40;;;;;;5028308;28;20052;-69
2021/07/06 01:45:08;;;;;;;1.80;1.10;;;19.30;94.20;;;;;;5027782;28;20066;-70
2021/07/06 01:48:12;;;;;;;2.15;1.42;;;19.20;94.40;;;;;;5030023;28;20066;-70
2021/07/06 01:51:16;;;;;;;2.78;1.00;;;19.30;94.10;;;;;;5029401;28;20034;-69
2021/07/06 01:54:20;;;;;;;1.27;0.90;;;19.30;93.90;;;;;;5029955;28;20042;-70
2021/07/06 01:57:24;;;;;;;2.38;1.08;;;19.40;93.70;;;;;;5030228;28;20597;-70
2021/07/06 02:00:30;;;;;;;2.67;1.08;;;19.40;93.80;;;;;;5029808;28;20045;-70
2021/07/06 02:03:35;;;;;;;2.72;1.02;;;19.50;93.90;;;;;;5029942;28;20050;-70
2021/07/06 02:06:39;;;;;;;2.63;1.35;;;19.50;93.80;;;;;;5030103;28;20033;-69
2021/07/06 02:09:43;;;;;;;2.22;1.20;;;19.50;93.90;;;;;;5030291;28;20624;-69
2021/07/06 02:12:47;;;;;;;3.13;1.30;;;19.50;93.90;;;;;;5029556;28;20049;-70
2021/07/06 02:15:53;;;;;;;3.08;1.25;;;19.50;94.30;;;;;;5029833;28;20044;-69
2021/07/06 02:18:57;;;;;;;4.88;1.38;;;19.60;94.90;;;;;;5029635;28;20046;-70
2021/07/06 02:22:01;;;;;;;4.72;1.45;;;19.60;95.30;;;;;;5028507;28;20042;-70
2021/07/06 02:25:08;;;;;;;2.72;1.30;;;19.50;95.70;;;;;;5029384;28;20052;-70
2021/07/06 02:28:12;;;;;;;2.08;1.10;;;19.40;96.60;;;;;;5029747;28;20520;-69
2021/07/06 02:31:16;;;;;;;2.72;1.15;;;19.20;96.70;;;;;;5028994;28;20396;-69
2021/07/06 02:34:20;;;;;;;4.28;1.48;;;19.00;97.60;;;;;;5033191;28;20045;-69
2021/07/06 02:37:23;;;;;;;3.80;1.27;;;18.80;98.10;;;;;;5033610;28;20399;-69
2021/07/06 02:40:28;;;;;;;4.13;1.50;;;18.70;98.20;;;;;;5032093;28;20037;-70
2021/07/06 02:43:33;;;;;;;2.95;1.45;;;18.50;99.20;;;;;;5032649;28;20451;-69
2021/07/06 02:46:37;;;;;;;6.78;1.23;;;18.30;99.80;;;;;;5032810;28;20040;-69
2021/07/06 02:49:42;;;;;;;1.90;1.20;;;18.20;99.90;;;;;;5032384;28;20045;-69
2021/07/06 02:52:47;;;;;;;2.55;1.05;;;18.00;99.90;;;;;;5013495;28;20038;-70
2021/07/06 02:55:51;;;;;;;3.70;1.65;;;18.00;99.90;;;;;;5013205;28;20041;-69
2021/07/06 02:58:56;;;;;;;3.75;1.48;;;17.90;99.90;;;;;;5013370;28;20030;-70
2021/07/06 03:02:00;;;;;;;4.40;1.33;;;17.80;99.90;;;;;;5011984;28;20053;-69
2021/07/06 03:05:06;;;;;;;3.97;1.60;;;17.80;99.90;;;;;;5023603;28;20044;-69
2021/07/06 03:08:10;;;;;;;10.68;1.90;;;17.70;99.90;;;;;;5013395;28;20047;-70
2021/07/06 03:11:14;;;;;;;5.53;2.20;;;17.60;99.90;;;;;;5012432;28;20045;-69
2021/07/06 03:14:18;;;;;;;3.38;1.50;;;17.70;99.90;;;;;;5012022;28;20511;-69
2021/07/06 03:17:22;;;;;;;4.38;1.70;;;17.70;99.90;;;;;;5012935;28;20049;-69
2021/07/06 03:20:27;;;;;;;3.10;1.83;;;17.70;99.90;;;;;;5012487;28;20048;-69
2021/07/06 03:23:32;;;;;;;4.97;1.80;;;17.70;99.90;;;;;;5012933;28;20041;-69
2021/07/06 03:26:38;;;;;;;4.65;2.30;;;17.70;99.90;;;;;;5012679;28;20037;-69
2021/07/06 03:29:41;;;;;;;3.85;1.70;;;17.80;99.90;;;;;;5013094;28;20042;-69
2021/07/06 03:32:47;;;;;;;11.52;2.03;;;17.70;99.90;;;;;;5012967;28;20033;-69
2021/07/06 03:35:51;;;;;;;11.23;2.55;;;17.70;99.90;;;;;;5012333;28;20060;-69
2021/07/06 03:38:55;;;;;;;4.80;2.42;;;17.70;99.90;;;;;;5012564;28;20048;-69
2021/07/06 03:41:59;;;;;;;5.53;2.40;;;17.60;99.90;;;;;;5011004;28;20049;-69
2021/07/06 03:45:04;;;;;;;4.72;2.00;;;17.50;99.90;;;;;;5012276;28;20053;-69
2021/07/06 03:48:09;;;;;;;4.95;1.88;;;17.40;99.90;;;;;;5012284;28;20038;-69
2021/07/06 03:51:13;;;;;;;5.28;2.72;;;17.30;99.90;;;;;;5033684;28;20411;-68
2021/07/06 03:54:18;;;;;;;4.68;2.20;;;17.40;99.90;;;;;;5032004;28;20046;-70
2021/07/06 03:57:30;;;;;;;6.47;2.17;;;17.40;99.90;;;;;;5031921;28;20041;-69
2021/07/06 04:00:35;;;;;;;4.30;2.03;;;17.50;99.90;;;;;;5031169;28;20048;-69
2021/07/06 04:03:39;;;;;;;7.68;2.35;;;17.60;99.90;;;;;;5031943;28;20052;-69
2021/07/06 04:06:43;;;;;;;3.33;1.70;;;17.70;99.90;;;;;;5031708;28;20037;-68
2021/07/06 04:09:47;;;;;;;4.82;1.90;;;17.80;99.90;;;;;;5021811;28;20389;-69
2021/07/06 04:12:51;;;;;;;5.07;1.90;;;17.90;99.90;;;;;;5021575;28;20040;-69
2021/07/06 04:15:55;;;;;;;3.53;2.40;;;17.90;99.90;;;;;;5031116;28;20044;-69
2021/07/06 04:19:00;;;;;;;4.90;1.63;;;18.00;99.90;;;;;;5031628;28;20200;-69
2021/07/06 04:22:04;;;;;;;6.72;1.92;;;18.10;99.90;;;;;;5031022;28;20037;-68
2021/07/06 04:25:09;;;;;;;9.23;2.00;;;18.10;99.90;;;;;;5031383;28;20033;-69
2021/07/06 04:28:13;;;;;;;5.90;2.00;;;18.20;99.90;;;;;;5011770;28;20041;-69
2021/07/06 04:31:17;;;;;;;7.10;2.28;;;18.30;99.90;;;;;;5010298;28;20042;-69
2021/07/06 04:34:22;;;;;;;3.17;1.83;;;18.50;99.90;;;;;;5011948;28;20054;-69
2021/07/06 04:37:26;;;;;;;9.32;1.92;;;20.30;99.90;;;;;;5027838;28;20034;-69
2021/07/06 04:40:30;;;;;;;7.25;2.08;;;22.60;99.90;;;;;;5030504;28;20025;-69
2021/07/06 04:43:34;;;;;;;12.07;2.00;;;24.00;99.70;;;;;;5016704;28;20048;-69
2021/07/06 04:46:39;;;;;;;8.00;1.85;;;25.50;96.90;;;;;;5010761;28;20036;-69
2021/07/06 04:49:46;;;;;;;3.03;1.35;;;25.40;96.00;;;;;;5023897;28;20057;-69
2021/07/06 04:52:51;;;;;;;4.68;1.80;;;26.40;94.80;;;;;;5029357;28;20048;-69
2021/07/06 04:55:55;;;;;;;5.15;1.40;;;27.50;92.90;;;;;;5028861;28;20029;-68
2021/07/06 04:59:00;;;;;;;8.82;1.45;;;27.60;92.00;;;;;;5030729;28;20405;-69
2021/07/06 05:02:05;;;;;;;6.32;1.75;;;28.00;91.30;;;;;;5028834;28;20041;-69
2021/07/06 05:05:11;;;;;;;4.50;1.35;;;28.10;90.10;;;;;;5026700;28;20388;-69
2021/07/06 05:08:15;;;;;;;4.57;1.70;;;27.20;90.70;;;;;;5029762;28;20044;-69
2021/07/06 05:11:19;;;;;;;3.53;1.60;;;26.90;91.20;;;;;;5028316;28;20038;-70
2021/07/06 05:14:23;;;;;;;3.90;1.95;;;27.40;91.10;;;;;;5029188;28;20042;-69
2021/07/06 05:17:28;;;;;;;3.97;1.70;;;26.00;91.50;;;;;;5029626;28;20053;-69
2021/07/06 05:20:32;;;;;;;3.60;1.60;;;25.40;92.90;;;;;;5029989;28;20045;-69
2021/07/06 05:23:36;;;;;;;6.15;1.70;;;25.70;93.30;;;;;;5030188;28;20053;-69
2021/07/06 05:26:42;;;;;;;4.15;1.73;;;27.40;92.20;;;;;;5030739;28;20045;-68
2021/07/06 05:29:46;;;;;;;4.18;1.58;;;28.90;90.40;;;;;;5031149;28;20045;-69
2021/07/06 05:32:50;;;;;;;3.53;1.52;;;30.30;87.10;;;;;;5029997;28;20064;-69
2021/07/06 05:35:54;;;;;;;14.68;2.00;;;31.00;84.70;;;;;;5031051;28;20498;-69
2021/07/06 05:39:01;;;;;;;30.52;3.45;;;31.50;82.80;;;;;;5030331;28;20048;-69
2021/07/06 05:42:05;;;;;;;10.82;2.25;;;31.90;81.50;;;;;;5027695;28;20121;-69
2021/07/06 05:45:10;;;;;;;28.20;2.45;;;32.10;80.10;;;;;;5030098;28;20499;-69
2021/07/06 05:48:15;;;;;;;9.65;1.80;;;31.80;79.30;;;;;;5028734;28;20051;-69
2021/07/06 05:51:19;;;;;;;8.95;2.03;;;31.90;78.60;;;;;;5027683;28;20033;-68
2021/07/06 05:54:23;;;;;;;7.03;1.83;;;32.10;78.80;;;;;;5029557;28;20045;-69
2021/07/06 05:57:31;;;;;;;5.85;1.92;;;31.90;77.30;;;;;;5026534;28;20040;-69
2021/07/06 06:00:37;;;;;;;5.72;1.40;;;31.40;78.60;;;;;;5029636;28;20040;-69
2021/07/06 06:03:42;;;;;;;19.40;1.70;;;28.50;82.10;;;;;;5017605;28;20041;-68
2021/07/06 06:06:46;;;;;;;10.32;1.73;;;27.50;85.30;;;;;;5012706;28;20045;-69
2021/07/06 06:09:51;;;;;;;4.20;1.73;;;25.50;88.10;;;;;;5042142;28;20037;-69
2021/07/06 06:12:55;;;;;;;5.40;1.50;;;24.50;90.50;;;;;;5033630;28;20045;-68
2021/07/06 06:15:59;;;;;;;3.88;1.48;;;24.60;91.70;;;;;;5018095;28;20527;-68
2021/07/06 06:19:04;;;;;;;9.35;1.65;;;26.30;90.30;;;;;;5035334;28;20053;-68
2021/07/06 06:22:08;;;;;;;8.02;1.75;;;27.10;89.30;;;;;;5019177;28;20046;-69
2021/07/06 06:25:12;;;;;;;4.05;1.60;;;28.70;86.10;;;;;;5033238;28;20037;-69
2021/07/06 06:28:17;;;;;;;4.53;1.70;;;28.90;84.50;;;;;;5043832;28;20042;-69
2021/07/06 06:31:21;;;;;;;3.45;1.42;;;27.40;85.90;;;;;;5032501;28;20041;-68
2021/07/06 06:34:25;;;;;;;9.93;1.33;;;28.60;85.60;;;;;;5032190;28;20037;-69
2021/07/06 06:37:29;;;;;;;20.65;2.55;;;28.30;84.50;;;;;;5033088;28;20495;-68
2021/07/06 06:40:34;;;;;;;9.45;2.08;;;29.60;82.80;;;;;;5018533;28;20052;-68
2021/07/06 06:43:38;;;;;;;15.40;2.63;;;30.80;81.50;;;;;;5014521;28;20042;-68
2021/07/06 06:46:44;;;;;;;10.93;1.63;;;31.80;79.60;;;;;;5013368;28;20045;-68
2021/07/06 06:49:49;;;;;;;22.08;2.25;;;32.50;78.10;;;;;;5013362;28;20053;-68
2021/07/06 06:52:52;;;;;;;9.40;1.98;;;32.80;77.10;;;;;;5022823;28;20392;-67
2021/07/06 06:55:56;;;;;;;9.38;1.80;;;33.10;76.10;;;;;;5032216;28;20268;-68
2021/07/06 06:59:00;;;;;;;2.22;1.20;;;32.90;75.20;;;;;;5032431;28;20052;-68
2021/07/06 07:02:17;;;;;;;6.82;1.77;;;33.70;73.70;;;;;;5027784;28;20130;-67
2021/07/06 07:05:21;;;;;;;3.92;1.17;;;33.70;72.80;;;;;;5029210;28;20038;-68
2021/07/06 07:08:25;;;;;;;7.90;1.95;;;34.20;72.20;;;;;;5032071;28;20033;-67
2021/07/06 07:11:30;;;;;;;12.10;1.05;;;34.40;71.80;;;;;;5036115;28;20034;-67
2021/07/06 07:14:35;;;;;;;8.63;1.30;;;33.90;70.90;;;;;;5031540;28;20056;-68
2021/07/06 07:17:40;;;;;;;2.58;1.00;;;34.60;70.90;;;;;;5032392;28;20060;-68
2021/07/06 07:20:45;;;;;;;7.95;1.27;;;33.20;72.80;;;;;;5032253;28;20050;-68
2021/07/06 07:23:49;;;;;;;5.93;1.35;;;33.90;72.50;;;;;;5031630;28;20041;-67
2021/07/06 07:26:53;;;;;;;3.05;1.35;;;32.40;72.70;;;;;;5022742;28;20037;-67
2021/07/06 07:29:59;;;;;;;3.83;1.45;;;31.50;73.40;;;;;;5032977;28;20037;-68
2021/07/06 07:33:04;;;;;;;6.93;1.40;;;31.60;75.70;;;;;;5042695;28;20044;-68
2021/07/06 07:36:08;;;;;;;3.13;1.30;;;31.00;75.40;;;;;;5031982;28;20053;-68
2021/07/06 07:39:12;;;;;;;3.72;1.20;;;30.20;77.50;;;;;;5032378;28;20536;-67
2021/07/06 07:42:19;;;;;;;5.65;1.50;;;32.70;75.20;;;;;;5031567;28;20046;-67
2021/07/06 07:45:23;;;;;;;3.42;1.25;;;34.10;72.80;;;;;;5025422;28;20038;-68
2021/07/06 07:48:27;;;;;;;4.97;1.40;;;33.70;72.30;;;;;;5013463;28;20057;-69
2021/07/06 07:51:31;;;;;;;5.40;1.10;;;33.30;73.30;;;;;;5030148;28;20044;-68
2021/07/06 07:54:36;;;;;;;8.93;1.48;;;33.30;73.40;;;;;;5027501;28;20049;-68
2021/07/06 07:57:41;;;;;;;3.17;1.20;;;35.10;72.40;;;;;;5028974;28;20129;-67
2021/07/06 08:00:44;;;;;;;2.42;1.10;;;33.60;72.70;;;;;;5028697;28;20383;-67
2021/07/06 08:04:02;;;;;;;4.10;1.17;;;32.50;72.80;;;;;;5029631;28;20044;-67
2021/07/06 08:07:07;;;;;;;4.03;1.10;;;32.90;73.00;;;;;;5017223;28;20036;-68
2021/07/06 08:10:11;;;;;;;5.05;1.10;;;34.70;71.90;;;;;;5025511;28;20039;-67
2021/07/06 08:13:16;;;;;;;3.78;1.35;;;36.30;70.40;;;;;;5028067;28;20034;-67
2021/07/06 08:16:20;;;;;;;3.53;0.95;;;35.90;70.10;;;;;;5027458;28;20037;-67
2021/07/06 08:19:25;;;;;;;6.03;1.25;;;37.10;68.40;;;;;;5025216;28;20044;-68
2021/07/06 08:22:29;;;;;;;3.92;1.38;;;38.50;66.60;;;;;;5032184;28;20049;-68
2021/07/06 08:25:33;;;;;;;1.67;0.90;;;38.90;64.90;;;;;;5032159;28;20048;-68
2021/07/06 08:28:37;;;;;;;3.83;1.00;;;39.90;64.20;;;;;;5023612;28;20042;-69
2021/07/06 08:31:41;;;;;;;1.65;0.80;;;41.30;62.30;;;;;;5031317;28;20033;-68
2021/07/06 08:34:45;;;;;;;1.40;0.80;;;39.80;62.40;;;;;;5032260;28;20052;-68
2021/07/06 08:37:49;;;;;;;5.90;0.88;;;41.10;62.30;;;;;;5025178;28;20041;-67
2021/07/06 08:40:53;;;;;;;2.85;0.88;;;41.50;61.70;;;;;;5011949;28;20030;-68
2021/07/06 08:43:57;;;;;;;3.30;1.00;;;42.70;59.90;;;;;;5016374;28;20052;-68
2021/07/06 08:47:01;;;;;;;2.08;0.82;;;42.70;59.60;;;;;;5028774;28;20048;-68
2021/07/06 08:50:07;;;;;;;3.45;1.00;;;43.20;58.40;;;;;;5019899;28;20045;-68
2021/07/06 08:53:11;;;;;;;4.57;0.90;;;43.50;58.00;;;;;;5021599;28;20049;-68
2021/07/06 08:56:17;;;;;;;5.53;1.00;;;43.70;57.40;;;;;;5011002;28;20042;-68
2021/07/06 08:59:20;;;;;;;2.40;0.70;;;43.90;57.10;;;;;;5024896;28;20045;-68
2021/07/06 09:02:25;;;;;;;6.05;0.90;;;44.20;57.10;;;;;;5023419;28;20040;-68
2021/07/06 09:05:30;;;;;;;1.42;0.90;;;45.00;56.70;;;;;;5030720;28;20523;-67
2021/07/06 09:08:34;;;;;;;4.28;0.90;;;45.20;56.20;;;;;;5031085;28;20531;-68
2021/07/06 09:11:49;;;;;;;3.58;0.90;;;45.60;56.10;;;;;;5030394;28;20041;-68
2021/07/06 09:14:54;;;;;;;2.45;1.05;;;46.00;55.50;;;;;;5014962;28;20052;-68
2021/07/06 09:18:16;;;;;;;2.85;0.90;;;45.30;55.20;;;;;;5041239;28;20481;-67
2021/07/06 09:21:22;;;;;;;2.80;0.80;;;45.40;54.60;;;;;;5030408;28;20045;-68
2021/07/06 09:24:27;;;;;;;5.55;0.80;;;45.40;55.50;;;;;;5031358;28;20045;-68
2021/07/06 09:27:35;;;;;;;3.30;0.88;;;45.10;55.00;;;;;;5022010;28;20538;-68
2021/07/06 09:30:42;;;;;;;5.72;1.02;;;45.70;54.30;;;;;;5029465;28;20048;-68
2021/07/06 09:33:58;;;;;;;5.53;0.95;;;46.30;54.70;;;;;;5028629;28;20388;-67
2021/07/06 09:37:02;;;;;;;2.45;0.60;;;47.10;52.60;;;;;;5027494;28;20036;-69
2021/07/06 09:40:22;;;;;;;1.25;0.60;;;47.60;51.80;;;;;;5020790;28;20045;-69
2021/07/06 09:43:29;;;;;;;1.65;0.57;;;48.60;50.70;;;;;;5010708;28;20141;-68
2021/07/06 09:46:45;;;;;;;1.48;0.60;;;49.00;50.30;;;;;;5010681;28;20051;-68
2021/07/06 09:49:57;;;;;;;2.88;0.60;;;49.20;49.90;;;;;;5016343;28;20034;-67
2021/07/06 09:53:03;;;;;;;1.88;0.70;;;43.60;51.60;;;;;;5018072;28;20055;-68
2021/07/06 09:56:15;;;;;;;6.72;0.95;;;43.50;52.10;;;;;;5029750;28;20037;-68
2021/07/06 09:59:22;;;;;;;3.25;0.80;;;46.00;52.40;;;;;;5030030;28;20041;-68
2021/07/06 10:02:29;;;;;;;5.90;0.70;;;45.80;52.20;;;;;;5027764;28;20490;-68
2021/07/06 10:05:33;;;;;;;0.82;0.60;;;44.30;51.40;;;;;;5010640;28;20038;-68
2021/07/06 10:08:38;;;;;;;4.13;0.60;;;44.10;53.00;;;;;;5010617;28;20411;-68
2021/07/06 10:11:43;;;;;;;4.88;0.82;;;45.30;52.30;;;;;;5010445;28;20050;-68
2021/07/06 10:14:48;;;;;;;3.80;0.63;;;43.70;51.70;;;;;;5027753;28;20498;-68
2021/07/06 10:17:52;;;;;;;3.25;1.00;;;43.20;51.20;;;;;;5029980;28;20387;-67
2021/07/06 10:20:58;;;;;;;4.03;0.75;;;39.60;54.80;;;;;;5029583;28;20041;-67
2021/07/06 10:24:04;;;;;;;2.28;0.82;;;39.50;55.20;;;;;;5027763;28;20038;-68
2021/07/06 10:27:21;;;;;;;3.85;0.75;;;40.60;54.00;;;;;;5023203;28;20047;-68
2021/07/06 10:30:31;;;;;;;2.45;0.70;;;43.50;54.00;;;;;;5009533;28;20065;-68
2021/07/06 10:33:36;;;;;;;3.15;0.70;;;45.70;52.10;;;;;;5028009;28;20046;-67
2021/07/06 10:36:43;;;;;;;2.65;0.75;;;46.60;51.10;;;;;;5030036;28;20037;-67
2021/07/06 10:39:48;;;;;;;2.03;0.80;;;47.80;50.60;;;;;;5029789;28;20388;-69
2021/07/06 10:42:53;;;;;;;5.47;0.85;;;48.30;49.80;;;;;;5028384;28;20045;-69
2021/07/06 10:46:16;;;;;;;2.00;0.90;;;48.30;49.70;;;;;;5014678;28;20037;-68
2021/07/06 10:49:25;;;;;;;4.00;0.70;;;48.30;49.90;;;;;;5028815;28;20038;-68
2021/07/06 10:52:35;;;;;;;3.92;1.00;;;48.40;49.10;;;;;;5037989;28;20041;-68
2021/07/06 10:55:39;;;;;;;5.70;1.00;;;48.40;50.00;;;;;;5031770;28;20048;-69
2021/07/06 10:58:53;;;;;;;3.75;0.85;;;48.10;50.10;;;;;;5030843;28;20037;-68
2021/07/06 11:02:02;;;;;;;2.20;1.10;;;47.90;49.50;;;;;;5031168;28;20041;-69
2021/07/06 11:05:07;;;;;;;1.92;0.90;;;48.30;49.10;;;;;;5013463;28;20049;-68
2021/07/06 11:08:41;;;;;;;3.15;0.80;;;47.90;48.90;;;;;;5025541;28;20041;-69
2021/07/06 11:11:45;;;;;;;3.60;0.93;;;47.70;49.30;;;;;;5012867;28;20499;-69
2021/07/06 11:14:52;;;;;;;3.60;0.85;;;48.10;49.00;;;;;;5011147;28;20046;-70
2021/07/06 11:18:08;;;;;;;4.88;1.00;;;48.60;49.30;;;;;;5027890;28;20527;-69
2021/07/06 11:21:32;;;;;;;4.13;1.00;;;47.90;49.70;;;;;;5026947;28;20295;-69
2021/07/06 11:24:45;;;;;;;2.65;1.00;;;47.50;50.00;;;;;;5028743;28;20052;-68
2021/07/06 11:28:01;;;;;;;2.33;0.70;;;46.70;49.80;;;;;;5020095;28;20034;-69
2021/07/06 11:31:17;;;;;;;4.85;1.20;;;46.50;50.50;;;;;;5017389;28;20045;-68
2021/07/06 11:34:21;;;;;;;2.05;0.70;;;46.00;50.90;;;;;;5018151;28;20038;-67
2021/07/06 11:37:29;;;;;;;3.55;1.00;;;45.50;51.40;;;;;;5018092;28;20046;-68
2021/07/06 11:40:36;;;;;;;8.30;1.02;;;45.10;51.10;;;;;;5020124;28;20471;-68
2021/07/06 11:43:41;;;;;;;5.70;0.90;;;44.60;51.50;;;;;;5020137;28;20496;-68
2021/07/06 11:46:45;;;;;;;2.28;1.10;;;44.30;51.40;;;;;;5020679;28;20052;-68
2021/07/06 11:49:49;;;;;;;2.78;0.80;;;44.40;51.00;;;;;;5022295;28;20061;-68
2021/07/06 11:52:53;;;;;;;1.20;0.80;;;44.40;50.80;;;;;;5016446;28;20050;-68
2021/07/06 11:56:00;;;;;;;2.80;1.33;;;44.70;50.60;;;;;;5017454;28;20047;-68
2021/07/06 11:59:11;;;;;;;2.97;0.82;;;42.90;50.60;;;;;;5021085;28;20045;-68
2021/07/06 12:02:15;;;;;;;12.45;1.80;;;41.10;52.50;;;;;;5017662;28;20543;-67
2021/07/06 12:05:20;;;;;;;8.00;1.20;;;40.40;54.70;;;;;;5017647;28;20045;-67
2021/07/06 12:08:33;;;;;;;2.97;1.00;;;40.20;55.80;;;;;;5018892;28;20618;-68
2021/07/06 12:11:37;;;;;;;9.48;1.30;;;40.90;55.40;;;;;;5015976;28;20538;-68
2021/07/06 12:14:46;;;;;;;1.67;0.95;;;41.60;54.80;;;;;;5017731;28;20037;-69
2021/07/06 12:17:50;;;;;;;2.55;0.90;;;42.00;53.60;;;;;;5020427;28;20081;-68
2021/07/06 12:20:57;;;;;;;2.85;1.48;;;42.20;53.50;;;;;;5011742;28;20045;-68
2021/07/06 12:24:07;;;;;;;7.03;1.00;;;42.00;53.50;;;;;;5011908;28;20038;-68
2021/07/06 12:27:14;;;;;;;2.80;1.27;;;41.30;53.80;;;;;;5010770;28;20046;-67
2021/07/06 12:30:20;;;;;;;6.20;1.33;;;37.30;54.40;;;;;;5017830;28;20508;-69
2021/07/06 12:33:25;;;;;;;3.85;1.40;;;37.60;56.50;;;;;;5015668;28;20037;-68
2021/07/06 12:36:55;;;;;;;3.67;1.15;;;39.10;56.20;;;;;;5014700;28;20034;-68
2021/07/06 12:40:06;;;;;;;4.25;1.50;;;40.10;54.80;;;;;;5022418;28;20060;-67
2021/07/06 12:43:10;;;;;;;3.92;1.42;;;40.40;54.80;;;;;;5017466;28;20057;-65
2021/07/06 12:46:15;;;;;;;5.40;1.10;;;39.40;53.80;;;;;;5017910;28;20040;-67
2021/07/06 12:49:25;;;;;;;4.68;1.60;;;38.80;54.70;;;;;;5018671;28;20033;-68
2021/07/06 12:52:43;;;;;;;2.95;1.13;;;38.10;56.20;;;;;;5018893;28;20487;-67
2021/07/06 12:55:47;;;;;;;8.07;1.63;;;38.90;54.60;;;;;;5022093;28;20042;-68
2021/07/06 12:58:52;;;;;;;1.70;1.02;;;39.10;54.10;;;;;;5018930;28;21232;-68
2021/07/06 13:01:58;;;;;;;2.88;1.38;;;39.70;54.50;;;;;;5019902;28;20044;-67
2021/07/06 13:05:03;;;;;;;5.28;1.42;;;39.20;55.30;;;;;;5021313;28;20048;-67
2021/07/06 13:08:20;;;;;;;2.83;1.20;;;38.80;54.70;;;;;;5017784;28;20052;-67
2021/07/06 13:11:28;;;;;;;4.38;1.30;;;38.10;55.50;;;;;;5032310;28;20383;-67
2021/07/06 13:14:32;;;;;;;4.90;1.15;;;38.60;55.40;;;;;;5019957;28;20042;-68
2021/07/06 13:17:44;;;;;;;9.43;1.40;;;38.10;55.80;;;;;;5018492;28;20369;-67
2021/07/06 13:20:50;;;;;;;5.80;1.30;;;37.90;56.20;;;;;;5016645;28;20396;-67
2021/07/06 13:23:56;;;;;;;4.10;1.50;;;37.10;54.60;;;;;;5026069;28;20042;-67
2021/07/06 13:27:00;;;;;;;6.68;1.52;;;36.60;56.10;;;;;;5017990;28;20042;-68
2021/07/06 13:30:10;;;;;;;8.30;1.70;;;36.10;57.30;;;;;;5018056;28;20492;-67
2021/07/06 13:33:16;;;;;;;4.43;1.55;;;36.30;58.10;;;;;;5017773;28;20041;-68
2021/07/06 13:36:20;;;;;;;2.83;1.30;;;37.00;57.90;;;;;;5017874;28;20057;-67
2021/07/06 13:39:24;;;;;;;3.40;1.75;;;37.30;58.00;;;;;;5016415;28;20507;-67
2021/07/06 13:42:29;;;;;;;3.38;1.60;;;37.70;57.00;;;;;;5016340;28;20049;-68
2021/07/06 13:45:33;;;;;;;12.00;2.45;;;36.40;56.90;;;;;;5028199;28;20045;-68
2021/07/06 13:48:38;;;;;;;4.93;1.55;;;37.30;59.00;;;;;;5016412;28;20048;-69
2021/07/06 13:51:42;;;;;;;3.53;2.05;;;37.90;57.00;;;;;;5011165;28;20040;-68
2021/07/06 13:54:46;;;;;;;4.50;1.35;;;38.20;56.70;;;;;;5011617;28;20558;-68
2021/07/06 13:57:53;;;;;;;3.67;1.27;;;38.10;55.70;;;;;;5012240;28;20045;-68
2021/07/06 14:00:57;;;;;;;8.85;1.42;;;37.40;57.10;;;;;;5015160;28;20044;-68
2021/07/06 14:04:02;;;;;;;4.10;1.30;;;37.20;58.00;;;;;;5015575;28;20048;-68
2021/07/06 14:07:22;;;;;;;3.78;1.25;;;37.20;57.10;;;;;;5018291;28;20133;-68
2021/07/06 14:10:27;;;;;;;4.03;1.60;;;36.50;57.70;;;;;;5017288;28;20311;-68
2021/07/06 14:13:30;;;;;;;2.10;1.35;;;36.60;58.30;;;;;;5017566;28;20052;-67
2021/07/06 14:16:35;;;;;;;3.28;1.67;;;37.10;57.90;;;;;;5015064;28;20053;-67
2021/07/06 14:19:39;;;;;;;18.90;2.42;;;37.20;58.00;;;;;;5015375;28;20060;-67
2021/07/06 14:22:44;;;;;;;6.72;2.25;;;37.00;58.40;;;;;;5016977;28;20048;-68
2021/07/06 14:25:49;;;;;;;8.63;1.73;;;37.30;57.90;;;;;;5011144;28;20441;-69
2021/07/06 14:28:54;;;;;;;18.55;2.00;;;37.40;58.00;;;;;;5021406;28;20048;-68
2021/07/06 14:31:58;;;;;;;8.85;1.60;;;37.30;58.10;;;;;;5018560;28;20054;-69
2021/07/06 14:35:12;;;;;;;4.55;2.08;;;37.50;58.80;;;;;;5020813;28;20053;-69
2021/07/06 14:38:16;;;;;;;9.50;1.75;;;37.30;58.80;;;;;;5033333;28;20503;-68
2021/07/06 14:41:20;;;;;;;10.27;2.08;;;37.10;58.80;;;;;;5019012;28;20052;-69
2021/07/06 14:44:24;;;;;;;5.70;1.90;;;37.10;59.60;;;;;;5017557;28;20049;-68
2021/07/06 14:47:28;;;;;;;8.23;1.50;;;37.00;59.10;;;;;;5019085;28;20049;-70
2021/07/06 14:50:32;;;;;;;7.20;1.70;;;36.90;59.50;;;;;;5019745;28;20408;-70
2021/07/06 14:53:38;;;;;;;4.82;1.52;;;36.80;58.90;;;;;;5029146;28;20499;-69
2021/07/06 14:56:43;;;;;;;5.43;1.55;;;36.80;59.70;;;;;;5023470;28;20036;-68
2021/07/06 14:59:47;;;;;;;7.13;1.35;;;36.70;58.40;;;;;;5020194;28;20049;-67
2021/07/06 15:02:51;;;;;;;7.00;1.58;;;36.40;59.40;;;;;;5020250;28;20052;-66
2021/07/06 15:05:55;;;;;;;3.90;1.40;;;36.40;60.30;;;;;;5021699;28;20048;-68
2021/07/06 15:08:59;;;;;;;3.70;1.50;;;36.10;60.30;;;;;;5022349;28;20404;-69
2021/07/06 15:12:03;;;;;;;9.98;1.88;;;36.10;59.70;;;;;;5018698;28;20045;-67
2021/07/06 15:15:08;;;;;;;5.70;1.40;;;36.20;59.90;;;;;;5021817;28;20479;-68
2021/07/06 15:18:13;;;;;;;1.77;1.35;;;36.10;60.40;;;;;;5024980;28;20045;-67
2021/07/06 15:21:18;;;;;;;4.85;1.85;;;36.10;61.30;;;;;;5044021;28;20045;-66
2021/07/06 15:24:23;;;;;;;3.83;1.67;;;35.80;61.80;;;;;;5033080;28;20036;-67
2021/07/06 15:27:27;;;;;;;2.88;1.83;;;35.70;61.30;;;;;;5030155;28;20047;-67
2021/07/06 15:30:31;;;;;;;2.08;1.40;;;35.60;61.40;;;;;;5032313;28;20115;-68
2021/07/06 15:33:35;;;;;;;6.90;1.60;;;35.60;61.70;;;;;;5032875;28;20053;-66
2021/07/06 15:36:39;;;;;;;5.28;1.60;;;35.60;61.60;;;;;;5031950;28;20515;-68
2021/07/06 15:39:45;;;;;;;5.43;1.80;;;35.50;61.00;;;;;;5032156;28;20048;-68
2021/07/06 15:42:50;;;;;;;4.63;1.60;;;35.50;61.10;;;;;;5032817;28;20037;-68
2021/07/06 15:45:54;;;;;;;7.07;1.88;;;35.40;61.60;;;;;;5032961;28;20048;-68
2021/07/06 15:48:58;;;;;;;4.65;1.70;;;35.30;61.60;;;;;;5032722;28;20040;-67
2021/07/06 15:52:02;;;;;;;1.85;1.38;;;35.30;62.00;;;;;;5032270;28;20044;-68
2021/07/06 15:55:08;;;;;;;10.45;1.80;;;35.20;61.30;;;;;;5032358;28;20052;-67
2021/07/06 15:58:12;;;;;;;4.35;1.38;;;35.20;61.30;;;;;;5032372;28;20084;-68
2021/07/06 16:01:16;;;;;;;16.90;2.78;;;35.10;61.80;;;;;;5031938;28;20041;-68
2021/07/06 16:04:20;;;;;;;3.78;1.50;;;35.20;61.90;;;;;;5032398;28;20084;-68
2021/07/06 16:07:24;;;;;;;5.88;1.63;;;35.10;61.60;;;;;;5032302;28;20510;-68